createdAt,value
2023-02-13T00:01:19.126Z,1.71
2023-02-13T00:03:20.778Z,1.76
2023-02-13T00:05:22.397Z,1.77
2023-02-13T00:07:23.976Z,1.78
2023-02-13T00:09:25.636Z,1.75
2023-02-13T00:11:27.293Z,1.78
2023-02-13T00:13:28.952Z,1.74
2023-02-13T00:15:30.612Z,1.74
2023-02-13T00:17:32.667Z,1.73
2023-02-13T00:19:34.201Z,1.77
2023-02-13T00:21:35.859Z,1.70
2023-02-13T00:23:38.535Z,1.71
2023-02-13T00:25:40.152Z,1.70
2023-02-13T00:27:41.747Z,1.71
2023-02-13T00:29:43.508Z,1.75
2023-02-13T00:31:45.267Z,1.77
2023-02-13T00:33:47.300Z,1.80
2023-02-13T00:35:48.915Z,1.79
2023-02-13T00:37:50.584Z,1.82
2023-02-13T00:39:52.518Z,1.87
2023-02-13T00:41:54.209Z,1.91
2023-02-13T00:43:55.834Z,1.92
2023-02-13T00:45:58.998Z,1.92
2023-02-13T00:48:00.656Z,1.95
2023-02-13T00:50:02.275Z,1.93
2023-02-13T00:52:04.068Z,1.95
2023-02-13T00:54:05.794Z,1.85
2023-02-13T00:56:07.739Z,1.88
2023-02-13T00:58:09.378Z,1.89
2023-02-13T01:00:11.605Z,1.90
2023-02-13T01:02:13.316Z,1.84
2023-02-13T01:04:14.946Z,1.86
2023-02-13T01:06:16.615Z,1.82
2023-02-13T01:08:20.198Z,1.81
2023-02-13T01:10:21.827Z,1.89
2023-02-13T01:12:23.665Z,1.86
2023-02-13T01:14:25.299Z,1.84
2023-02-13T01:16:26.905Z,1.83
2023-02-13T01:18:28.660Z,1.86
2023-02-13T01:20:30.741Z,1.88
2023-02-13T01:22:32.312Z,1.82
2023-02-13T01:24:34.268Z,1.71
2023-02-13T01:26:36.095Z,1.70
2023-02-13T01:28:37.858Z,1.64
2023-02-13T01:30:39.591Z,1.73
2023-02-13T01:32:42.178Z,1.61
2023-02-13T01:34:43.775Z,1.65
2023-02-13T01:36:45.323Z,1.69
2023-02-13T01:38:46.965Z,1.67
2023-02-13T01:40:50.370Z,1.67
2023-02-13T01:42:52.086Z,1.69
2023-02-13T01:45:02.705Z,1.72
2023-02-13T01:47:04.337Z,1.72
2023-02-13T01:49:19.290Z,1.68
2023-02-13T01:51:25.517Z,1.73
2023-02-13T01:53:53.742Z,1.69
2023-02-13T01:56:02.410Z,1.68
2023-02-13T01:58:10.311Z,1.73
2023-02-13T02:00:17.012Z,1.73
2023-02-13T02:02:19.817Z,1.81
2023-02-13T02:04:36.148Z,1.79
2023-02-13T02:06:42.113Z,1.79
2023-02-13T02:08:44.182Z,1.75
2023-02-13T02:10:45.943Z,1.83
2023-02-13T02:13:18.738Z,1.82
2023-02-13T02:15:21.411Z,1.87
2023-02-13T02:17:25.106Z,1.91
2023-02-13T02:19:49.685Z,1.94
2023-02-13T02:22:03.216Z,1.97
2023-02-13T02:24:13.626Z,1.92
2023-02-13T02:26:53.128Z,1.90
2023-02-13T02:29:24.218Z,1.90
2023-02-13T02:32:03.756Z,1.91
2023-02-13T02:34:23.824Z,1.89
2023-02-13T02:36:37.215Z,1.86
2023-02-13T02:39:05.240Z,1.83
2023-02-13T02:41:42.338Z,1.79
2023-02-13T02:43:55.308Z,1.64
2023-02-13T02:46:32.594Z,1.70
2023-02-13T02:49:14.652Z,1.80
2023-02-13T02:51:23.897Z,1.84
2023-02-13T02:53:40.376Z,1.88
2023-02-13T02:55:50.789Z,1.93
2023-02-13T02:58:23.868Z,1.96
2023-02-13T03:00:45.087Z,1.94
2023-02-13T03:03:25.222Z,1.92
2023-02-13T03:05:49.856Z,1.66
2023-02-13T03:07:51.483Z,1.61
2023-02-13T03:10:15.866Z,1.69
2023-02-13T03:12:40.380Z,1.77
2023-02-13T03:14:42.746Z,1.83
2023-02-13T03:17:03.132Z,1.88
2023-02-13T03:19:23.887Z,1.97
2023-02-13T03:22:06.830Z,1.97
2023-02-13T03:24:21.974Z,2.08
2023-02-13T03:26:50.283Z,2.12
2023-02-13T03:29:30.072Z,1.99
2023-02-13T03:31:39.265Z,1.91
2023-02-13T03:34:06.590Z,1.90
2023-02-13T03:36:49.550Z,1.89
2023-02-13T03:39:34.032Z,1.77
2023-02-13T03:41:53.003Z,1.80
2023-02-13T03:44:00.490Z,1.80
2023-02-13T03:46:02.612Z,1.70
2023-02-13T03:48:32.251Z,1.74
2023-02-13T03:50:33.867Z,1.81
2023-02-13T03:52:45.118Z,1.86
2023-02-13T03:55:10.573Z,1.92
2023-02-13T03:57:34.131Z,1.91
2023-02-13T03:59:37.119Z,1.91
2023-02-13T04:01:39.417Z,1.89
2023-02-13T04:03:57.714Z,1.79
2023-02-13T04:06:13.215Z,1.73
2023-02-13T04:08:15.090Z,1.71
2023-02-13T04:10:18.188Z,1.65
2023-02-13T04:12:21.769Z,1.70
2023-02-13T04:14:44.310Z,1.73
2023-02-13T04:16:50.227Z,1.81
2023-02-13T04:18:52.466Z,1.90
2023-02-13T04:20:54.167Z,1.86
2023-02-13T04:22:55.882Z,1.78
2023-02-13T04:24:57.482Z,1.76
2023-02-13T04:26:59.399Z,1.73
2023-02-13T04:29:01.165Z,1.77
2023-02-13T04:31:02.857Z,1.81
2023-02-13T04:33:04.694Z,1.89
2023-02-13T04:35:06.591Z,1.86
2023-02-13T04:37:08.587Z,1.89
2023-02-13T04:39:11.529Z,1.90
2023-02-13T04:41:13.181Z,1.94
2023-02-13T04:43:14.830Z,1.94
2023-02-13T04:45:16.960Z,1.84
2023-02-13T04:47:18.615Z,1.83
2023-02-13T04:49:20.273Z,1.89
2023-02-13T04:51:21.982Z,1.81
2023-02-13T04:53:23.715Z,1.83
2023-02-13T04:55:26.879Z,1.61
2023-02-13T04:57:28.508Z,1.36
2023-02-13T04:59:30.125Z,1.25
2023-02-13T05:01:31.833Z,1.21
2023-02-13T05:03:33.483Z,1.06
2023-02-13T05:05:35.873Z,1.14
2023-02-13T05:07:37.524Z,1.26
2023-02-13T05:09:41.411Z,1.32
2023-02-13T05:11:43.355Z,1.08
2023-02-13T05:13:45.035Z,0.92
2023-02-13T05:15:48.242Z,0.76
2023-02-13T05:17:50.306Z,0.70
2023-02-13T05:19:51.871Z,0.54
2023-02-13T05:22:11.759Z,0.72
2023-02-13T05:24:13.412Z,0.91
2023-02-13T05:26:15.105Z,0.92
2023-02-13T05:28:35.684Z,0.92
2023-02-13T05:30:39.341Z,0.64
2023-02-13T05:32:43.290Z,0.58
2023-02-13T05:34:44.850Z,0.55
2023-02-13T05:36:46.795Z,0.47
2023-02-13T05:38:48.418Z,0.38
2023-02-13T05:40:50.017Z,0.34
2023-02-13T05:42:54.193Z,0.35
2023-02-13T05:44:55.741Z,0.45
2023-02-13T05:46:57.425Z,0.40
2023-02-13T05:48:59.092Z,0.36
2023-02-13T05:51:00.898Z,0.27
2023-02-13T05:53:02.490Z,0.21
2023-02-13T05:55:04.542Z,0.35
2023-02-13T05:57:06.108Z,0.51
2023-02-13T05:59:07.694Z,0.53
2023-02-13T06:01:09.308Z,0.48
2023-02-13T06:03:10.946Z,0.29
2023-02-13T06:05:12.595Z,0.15
2023-02-13T06:07:14.230Z,0.15
2023-02-13T06:09:15.858Z,0.18
2023-02-13T06:11:17.726Z,0.33
2023-02-13T06:13:19.394Z,0.32
2023-02-13T06:15:20.968Z,0.35
2023-02-13T06:17:22.624Z,0.54
2023-02-13T06:19:24.281Z,0.67
2023-02-13T06:21:25.990Z,0.69
2023-02-13T06:23:27.877Z,0.72
2023-02-13T06:25:29.580Z,0.62
2023-02-13T06:27:31.362Z,0.49
2023-02-13T06:29:33.152Z,0.47
2023-02-13T06:31:35.089Z,0.53
2023-02-13T06:33:36.754Z,0.18
2023-02-13T06:35:38.336Z,0.07
2023-02-13T06:37:40.140Z,0.07
2023-02-13T06:39:42.862Z,0.25
2023-02-13T06:41:44.497Z,0.42
2023-02-13T06:43:46.343Z,0.60
2023-02-13T06:45:48.052Z,0.49
2023-02-13T06:47:50.269Z,0.47
2023-02-13T06:49:51.952Z,0.37
2023-02-13T06:51:53.611Z,0.48
2023-02-13T06:53:55.219Z,0.76
2023-02-13T06:55:57.718Z,1.08
2023-02-13T06:57:59.347Z,1.24
2023-02-13T07:00:04.584Z,1.41
2023-02-13T07:02:06.281Z,1.59
2023-02-13T07:04:07.948Z,1.80
2023-02-13T07:06:09.633Z,1.91
2023-02-13T07:08:12.565Z,2.06
2023-02-13T07:10:14.904Z,2.11
2023-02-13T07:12:16.482Z,2.18
2023-02-13T07:14:18.146Z,2.17
2023-02-13T07:16:19.760Z,2.13
2023-02-13T07:18:21.405Z,2.01
2023-02-13T07:20:23.468Z,2.07
2023-02-13T07:22:25.180Z,2.03
2023-02-13T07:24:26.805Z,1.86
2023-02-13T07:26:28.486Z,1.98
2023-02-13T07:28:30.581Z,1.88
2023-02-13T07:30:33.459Z,1.76
2023-02-13T07:32:35.172Z,1.53
2023-02-13T07:34:36.745Z,1.22
2023-02-13T07:36:38.301Z,1.40
2023-02-13T07:38:39.950Z,1.25
2023-02-13T07:40:41.701Z,1.41
2023-02-13T07:42:43.283Z,1.38
2023-02-13T07:44:44.877Z,1.36
2023-02-13T07:46:46.579Z,1.41
2023-02-13T07:48:48.300Z,1.52
2023-02-13T07:50:50.341Z,1.69
2023-02-13T07:52:55.580Z,1.92
2023-02-13T07:54:57.174Z,2.02
2023-02-13T07:56:59.541Z,1.93
2023-02-13T07:59:01.217Z,2.05
2023-02-13T08:01:07.718Z,2.07
2023-02-13T08:03:09.757Z,2.14
2023-02-13T08:05:11.368Z,1.77
2023-02-13T08:07:14.320Z,1.45
2023-02-13T08:09:40.770Z,1.45
2023-02-13T08:11:54.785Z,1.40
2023-02-13T08:13:56.389Z,1.43
2023-02-13T08:15:58.499Z,1.59
2023-02-13T08:18:00.380Z,1.69
2023-02-13T08:20:02.068Z,1.81
2023-02-13T08:22:04.051Z,1.50
2023-02-13T08:24:05.861Z,1.30
2023-02-13T08:26:07.553Z,0.95
2023-02-13T08:28:09.317Z,1.21
2023-02-13T08:30:11.570Z,1.30
2023-02-13T08:32:13.331Z,1.24
2023-02-13T08:34:15.012Z,1.08
2023-02-13T08:36:16.727Z,1.25
2023-02-13T08:38:18.418Z,1.20
2023-02-13T08:40:20.226Z,1.08
2023-02-13T08:42:21.800Z,1.20
2023-02-13T08:44:23.356Z,1.26
2023-02-13T08:46:25.138Z,1.24
2023-02-13T08:48:27.458Z,1.36
2023-02-13T08:50:29.084Z,1.68
2023-02-13T08:52:30.793Z,1.78
2023-02-13T08:54:35.404Z,1.43
2023-02-13T08:56:36.989Z,1.07
2023-02-13T08:58:38.749Z,0.95
2023-02-13T09:00:40.324Z,1.10
2023-02-13T09:02:41.908Z,1.16
2023-02-13T09:04:43.602Z,1.19
2023-02-13T09:06:45.439Z,1.26
2023-02-13T09:08:47.052Z,1.25
2023-02-13T09:10:56.715Z,1.44
2023-02-13T09:12:58.572Z,1.79
2023-02-13T09:15:00.169Z,1.97
2023-02-13T09:17:03.286Z,2.19
2023-02-13T09:19:05.208Z,2.25
2023-02-13T09:21:09.525Z,1.94
2023-02-13T09:23:11.183Z,1.86
2023-02-13T09:25:12.767Z,2.05
2023-02-13T09:27:14.387Z,2.09
2023-02-13T09:29:15.953Z,2.23
2023-02-13T09:31:20.393Z,2.21
2023-02-13T09:33:22.180Z,2.18
2023-02-13T09:35:24.365Z,2.40
2023-02-13T09:37:27.114Z,2.66
2023-02-13T09:39:29.154Z,2.99
2023-02-13T09:41:42.172Z,3.12
2023-02-13T09:43:54.907Z,2.79
2023-02-13T09:46:01.554Z,2.31
2023-02-13T09:48:04.973Z,1.92
2023-02-13T09:50:17.122Z,1.67
2023-02-13T09:52:18.941Z,1.70
2023-02-13T09:54:20.730Z,1.91
2023-02-13T09:56:40.482Z,2.32
2023-02-13T09:58:46.334Z,2.20
2023-02-13T10:00:58.046Z,2.38
2023-02-13T10:02:59.650Z,2.30
2023-02-13T10:05:17.215Z,2.35
2023-02-13T10:07:39.870Z,2.78
2023-02-13T10:10:02.339Z,3.37
2023-02-13T10:12:23.050Z,2.78
2023-02-13T10:14:32.766Z,2.41
2023-02-13T10:16:53.312Z,2.91
2023-02-13T10:18:59.925Z,3.15
2023-02-13T10:21:03.051Z,3.04
2023-02-13T10:23:29.439Z,2.99
2023-02-13T10:25:42.764Z,3.42
2023-02-13T10:27:50.128Z,3.86
2023-02-13T10:30:05.721Z,4.30
2023-02-13T10:32:13.831Z,3.95
2023-02-13T10:34:17.288Z,3.92
2023-02-13T10:36:31.713Z,4.20
2023-02-13T10:38:34.145Z,4.25
2023-02-13T10:40:40.766Z,4.23
2023-02-13T10:42:42.349Z,4.18
2023-02-13T10:44:55.450Z,3.56
2023-02-13T10:46:59.638Z,3.43
2023-02-13T10:49:10.992Z,3.48
2023-02-13T10:51:30.730Z,3.75
2023-02-13T10:53:47.573Z,4.09
2023-02-13T10:55:55.429Z,3.88
2023-02-13T10:58:28.120Z,3.73
2023-02-13T11:00:43.170Z,3.78
2023-02-13T11:02:45.064Z,4.15
2023-02-13T11:04:46.964Z,4.55
2023-02-13T11:06:59.555Z,4.93
2023-02-13T11:09:01.174Z,4.77
2023-02-13T11:11:02.799Z,4.85
2023-02-13T11:13:22.232Z,5.09
2023-02-13T11:15:28.009Z,5.38
2023-02-13T11:17:36.443Z,5.46
2023-02-13T11:19:40.739Z,5.50
2023-02-13T11:21:42.430Z,5.16
2023-02-13T11:23:53.803Z,4.86
2023-02-13T11:26:00.871Z,5.25
2023-02-13T11:28:11.530Z,5.53
2023-02-13T11:30:46.730Z,5.85
2023-02-13T11:32:59.473Z,6.31
2023-02-13T11:35:27.026Z,6.44
2023-02-13T11:37:30.332Z,6.36
2023-02-13T11:39:31.910Z,5.80
2023-02-13T11:41:44.036Z,5.48
2023-02-13T11:43:51.868Z,4.93
2023-02-13T11:46:09.450Z,4.67
2023-02-13T11:48:21.896Z,4.44
2023-02-13T11:50:32.365Z,4.41
2023-02-13T11:52:35.689Z,4.75
2023-02-13T11:54:41.182Z,4.80
2023-02-13T11:57:04.041Z,4.88
2023-02-13T11:59:13.260Z,5.10
2023-02-13T12:01:20.963Z,5.23
2023-02-13T12:03:22.664Z,5.11
2023-02-13T12:05:26.993Z,4.95
2023-02-13T12:07:30.657Z,5.40
2023-02-13T12:09:32.498Z,5.49
2023-02-13T12:11:46.035Z,5.70
2023-02-13T12:13:48.309Z,6.03
2023-02-13T12:15:58.072Z,5.76
2023-02-13T12:18:09.010Z,5.62
2023-02-13T12:20:15.704Z,5.95
2023-02-13T12:22:28.944Z,6.38
2023-02-13T12:24:41.618Z,6.56
2023-02-13T12:26:46.774Z,6.73
2023-02-13T12:29:09.016Z,6.93
2023-02-13T12:31:19.819Z,7.01
2023-02-13T12:33:36.235Z,7.20
2023-02-13T12:35:50.220Z,6.97
2023-02-13T12:38:05.168Z,6.54
2023-02-13T12:40:30.644Z,5.82
2023-02-13T12:42:41.400Z,6.00
2023-02-13T12:45:03.456Z,5.92
2023-02-13T12:47:17.239Z,5.97
2023-02-13T12:49:44.229Z,6.13
2023-02-13T12:51:51.671Z,6.00
2023-02-13T12:54:02.762Z,6.15
2023-02-13T12:56:19.222Z,6.14
2023-02-13T12:59:07.706Z,6.22
2023-02-13T13:01:27.940Z,5.96
2023-02-13T13:03:48.010Z,6.09
2023-02-13T13:06:12.363Z,6.40
2023-02-13T13:08:29.145Z,6.71
2023-02-13T13:10:36.557Z,6.28
2023-02-13T13:13:02.958Z,6.26
2023-02-13T13:15:17.329Z,6.18
2023-02-13T13:17:43.065Z,6.07
2023-02-13T13:19:45.120Z,6.34
2023-02-13T13:22:11.177Z,6.59
2023-02-13T13:24:29.665Z,6.45
2023-02-13T13:26:37.436Z,6.55
2023-02-13T13:28:42.162Z,6.41
2023-02-13T13:30:44.188Z,5.91
2023-02-13T13:32:46.478Z,5.86
2023-02-13T13:34:48.296Z,5.97
2023-02-13T13:37:11.978Z,6.01
2023-02-13T13:39:31.841Z,6.04
2023-02-13T13:42:11.224Z,6.05
2023-02-13T13:44:26.357Z,6.04
2023-02-13T13:46:46.831Z,6.20
2023-02-13T13:49:15.390Z,6.51
2023-02-13T13:51:18.043Z,6.55
2023-02-13T13:53:23.384Z,6.31
2023-02-13T13:55:47.913Z,6.04
2023-02-13T13:58:00.120Z,6.22
2023-02-13T14:00:26.739Z,6.53
2023-02-13T14:02:38.870Z,6.61
2023-02-13T14:04:43.768Z,6.26
2023-02-13T14:06:45.523Z,6.10
2023-02-13T14:08:54.324Z,6.09
2023-02-13T14:11:02.103Z,5.98
2023-02-13T14:13:04.235Z,5.97
2023-02-13T14:15:06.175Z,6.01
2023-02-13T14:17:14.155Z,6.17
2023-02-13T14:19:33.650Z,6.19
2023-02-13T14:21:35.455Z,6.30
2023-02-13T14:23:42.936Z,6.35
2023-02-13T14:25:45.517Z,6.39
2023-02-13T14:28:02.261Z,6.47
2023-02-13T14:30:05.774Z,6.41
2023-02-13T14:32:16.411Z,6.38
2023-02-13T14:34:23.140Z,6.52
2023-02-13T14:36:32.301Z,6.55
2023-02-13T14:38:34.375Z,6.39
2023-02-13T14:40:48.004Z,6.29
2023-02-13T14:43:00.138Z,6.04
2023-02-13T14:45:04.971Z,5.91
2023-02-13T14:47:32.081Z,6.02
2023-02-13T14:49:36.968Z,6.04
2023-02-13T14:51:46.775Z,6.05
2023-02-13T14:53:53.106Z,6.20
2023-02-13T14:56:15.191Z,5.94
2023-02-13T14:58:24.311Z,5.68
2023-02-13T15:00:30.653Z,5.83
2023-02-13T15:02:36.022Z,6.02
2023-02-13T15:04:37.540Z,6.14
2023-02-13T15:06:42.472Z,6.03
2023-02-13T15:08:50.740Z,5.65
2023-02-13T15:10:54.390Z,5.77
2023-02-13T15:13:01.238Z,5.84
2023-02-13T15:15:22.193Z,5.60
2023-02-13T15:17:29.987Z,5.69
2023-02-13T15:19:32.852Z,5.52
2023-02-13T15:21:34.515Z,5.23
2023-02-13T15:23:36.272Z,5.22
2023-02-13T15:25:39.888Z,5.41
2023-02-13T15:27:43.548Z,5.46
2023-02-13T15:30:04.408Z,5.35
2023-02-13T15:32:18.439Z,5.51
2023-02-13T15:34:32.353Z,5.47
2023-02-13T15:36:39.763Z,5.43
2023-02-13T15:38:41.434Z,5.12
2023-02-13T15:40:44.021Z,5.04
2023-02-13T15:42:46.674Z,5.11
2023-02-13T15:44:51.294Z,5.01
2023-02-13T15:46:54.502Z,4.80
2023-02-13T15:48:58.948Z,4.79
2023-02-13T15:51:00.968Z,4.69
2023-02-13T15:53:05.191Z,4.63
2023-02-13T15:55:06.976Z,4.54
2023-02-13T15:57:11.454Z,4.53
2023-02-13T15:59:14.099Z,4.58
2023-02-13T16:01:17.043Z,4.48
2023-02-13T16:03:18.997Z,4.51
2023-02-13T16:05:37.508Z,4.64
2023-02-13T16:07:58.538Z,4.49
2023-02-13T16:10:29.400Z,4.41
2023-02-13T16:12:31.012Z,4.37
2023-02-13T16:14:36.817Z,4.35
2023-02-13T16:17:05.450Z,4.46
2023-02-13T16:19:07.067Z,4.64
2023-02-13T16:21:09.308Z,4.80
2023-02-13T16:23:17.267Z,4.93
2023-02-13T16:25:34.490Z,4.75
2023-02-13T16:27:36.598Z,4.55
2023-02-13T16:29:38.208Z,4.61
2023-02-13T16:31:40.719Z,4.61
2023-02-13T16:33:43.065Z,4.59
2023-02-13T16:35:55.384Z,4.60
2023-02-13T16:38:02.403Z,4.62
2023-02-13T16:40:32.321Z,4.66
2023-02-13T16:42:33.886Z,4.68
2023-02-13T16:44:35.523Z,4.66
2023-02-13T16:46:39.718Z,4.70
2023-02-13T16:48:56.556Z,4.75
2023-02-13T16:50:58.440Z,4.71
2023-02-13T16:53:02.613Z,4.81
2023-02-13T16:55:05.165Z,4.86
2023-02-13T16:57:33.750Z,4.80
2023-02-13T16:59:47.581Z,4.85
2023-02-13T17:02:02.241Z,4.82
2023-02-13T17:04:15.658Z,4.83
2023-02-13T17:06:17.249Z,4.77
2023-02-13T17:08:18.857Z,4.78
2023-02-13T17:10:20.532Z,4.76
2023-02-13T17:12:22.349Z,4.78
2023-02-13T17:14:23.999Z,4.70
2023-02-13T17:16:25.748Z,4.64
2023-02-13T17:18:27.792Z,4.69
2023-02-13T17:20:32.252Z,4.58
2023-02-13T17:22:39.540Z,4.63
2023-02-13T17:24:41.265Z,4.54
2023-02-13T17:26:42.958Z,4.47
2023-02-13T17:28:44.495Z,4.46
2023-02-13T17:30:47.062Z,4.48
2023-02-13T17:32:49.403Z,4.45
2023-02-13T17:34:51.151Z,4.44
2023-02-13T17:36:52.741Z,4.37
2023-02-13T17:38:54.353Z,4.38
2023-02-13T17:40:56.295Z,4.38
2023-02-13T17:42:59.232Z,4.40
2023-02-13T17:45:00.934Z,4.38
2023-02-13T17:47:02.738Z,4.37
2023-02-13T17:49:04.596Z,4.37
2023-02-13T17:51:06.333Z,4.28
2023-02-13T17:53:22.413Z,4.24
2023-02-13T17:55:26.134Z,4.24
2023-02-13T17:57:27.767Z,4.07
2023-02-13T17:59:29.329Z,4.15
2023-02-13T18:01:30.954Z,4.10
2023-02-13T18:03:32.555Z,4.16
2023-02-13T18:05:34.236Z,4.16
2023-02-13T18:07:36.231Z,4.10
2023-02-13T18:09:38.003Z,4.16
2023-02-13T18:11:39.578Z,4.10
2023-02-13T18:13:47.966Z,4.10
2023-02-13T18:15:49.595Z,4.08
2023-02-13T18:17:51.388Z,4.14
2023-02-13T18:19:53.140Z,4.20
2023-02-13T18:21:54.714Z,4.19
2023-02-13T18:23:56.577Z,4.27
2023-02-13T18:26:05.943Z,4.23
2023-02-13T18:28:07.554Z,4.19
2023-02-13T18:30:11.153Z,4.17
2023-02-13T18:32:12.982Z,4.12
2023-02-13T18:34:33.430Z,4.04
2023-02-13T18:36:34.948Z,4.09
2023-02-13T18:38:36.534Z,4.09
2023-02-13T18:40:38.139Z,4.05
2023-02-13T18:42:39.787Z,3.99
2023-02-13T18:44:41.788Z,3.87
2023-02-13T18:46:43.681Z,3.86
2023-02-13T18:48:45.261Z,3.87
2023-02-13T18:50:46.841Z,3.84
2023-02-13T18:52:48.498Z,3.78
2023-02-13T18:54:50.279Z,3.84
2023-02-13T18:56:52.173Z,3.88
2023-02-13T18:58:53.894Z,3.88
2023-02-13T19:00:55.806Z,3.86
2023-02-13T19:02:59.011Z,3.87
2023-02-13T19:05:01.288Z,3.83
2023-02-13T19:07:02.927Z,3.84
2023-02-13T19:09:04.591Z,3.86
2023-02-13T19:11:08.292Z,3.87
2023-02-13T19:13:09.894Z,3.96
2023-02-13T19:15:11.592Z,3.98
2023-02-13T19:17:13.210Z,3.95
2023-02-13T19:19:14.826Z,3.97
2023-02-13T19:21:16.648Z,3.88
2023-02-13T19:23:18.252Z,3.94
2023-02-13T19:25:20.074Z,3.99
2023-02-13T19:27:21.669Z,3.87
2023-02-13T19:29:23.408Z,3.98
2023-02-13T19:31:30.703Z,3.94
2023-02-13T19:33:32.738Z,3.98
2023-02-13T19:35:34.388Z,4.00
2023-02-13T19:37:43.875Z,3.95
2023-02-13T19:39:46.086Z,4.01
2023-02-13T19:41:47.713Z,3.87
2023-02-13T19:43:56.077Z,3.87
2023-02-13T19:45:57.696Z,3.83
2023-02-13T19:47:59.353Z,3.84
2023-02-13T19:50:00.903Z,3.81
2023-02-13T19:52:03.696Z,3.79
2023-02-13T19:54:07.182Z,3.85
2023-02-13T19:56:09.527Z,3.72
2023-02-13T19:58:11.138Z,3.73
2023-02-13T20:00:13.391Z,3.79
2023-02-13T20:02:15.544Z,3.70
2023-02-13T20:04:17.191Z,3.69
2023-02-13T20:06:24.926Z,3.74
2023-02-13T20:08:26.513Z,3.77
2023-02-13T20:10:28.075Z,3.79
2023-02-13T20:12:29.717Z,3.76
2023-02-13T20:14:31.285Z,3.83
2023-02-13T20:16:35.464Z,3.83
2023-02-13T20:18:37.886Z,3.80
2023-02-13T20:20:39.925Z,3.75
2023-02-13T20:22:41.539Z,3.75
2023-02-13T20:24:43.527Z,3.61
2023-02-13T20:26:45.146Z,3.66
2023-02-13T20:28:48.107Z,3.62
2023-02-13T20:30:49.935Z,3.72
2023-02-13T20:32:51.550Z,3.79
2023-02-13T20:34:59.877Z,3.79
2023-02-13T20:37:01.877Z,3.78
2023-02-13T20:39:06.135Z,3.71
2023-02-13T20:41:12.103Z,3.68
2023-02-13T20:43:13.700Z,3.74
2023-02-13T20:45:15.451Z,3.72
2023-02-13T20:47:17.180Z,3.75
2023-02-13T20:49:21.919Z,3.84
2023-02-13T20:51:23.678Z,3.86
2023-02-13T20:53:25.704Z,3.77
2023-02-13T20:55:27.280Z,3.74
2023-02-13T20:57:28.903Z,3.72
2023-02-13T20:59:30.552Z,3.71
2023-02-13T21:01:35.638Z,3.77
2023-02-13T21:03:37.296Z,3.81
2023-02-13T21:05:38.910Z,3.77
2023-02-13T21:07:40.660Z,3.76
2023-02-13T21:09:42.315Z,3.74
2023-02-13T21:11:44.724Z,3.65
2023-02-13T21:13:46.816Z,3.71
2023-02-13T21:15:50.602Z,3.74
2023-02-13T21:17:52.276Z,3.70
2023-02-13T21:19:53.872Z,3.76
2023-02-13T21:21:55.434Z,3.75
2023-02-13T21:23:59.570Z,3.79
2023-02-13T21:26:05.621Z,3.80
2023-02-13T21:28:07.353Z,3.76
2023-02-13T21:30:09.524Z,3.77
2023-02-13T21:32:11.281Z,3.66
2023-02-13T21:34:13.834Z,3.57
2023-02-13T21:36:15.730Z,3.60
2023-02-13T21:38:19.411Z,3.61
2023-02-13T21:40:21.259Z,3.73
2023-02-13T21:42:22.879Z,3.78
2023-02-13T21:44:24.683Z,3.84
2023-02-13T21:46:28.896Z,3.82
2023-02-13T21:48:30.460Z,3.87
2023-02-13T21:50:32.553Z,3.87
2023-02-13T21:52:35.284Z,3.77
2023-02-13T21:54:37.100Z,3.85
2023-02-13T21:56:40.416Z,3.80
2023-02-13T21:58:43.105Z,3.82
2023-02-13T22:00:44.714Z,3.86
2023-02-13T22:02:46.259Z,3.83
2023-02-13T22:04:47.833Z,3.74
2023-02-13T22:06:51.416Z,3.71
2023-02-13T22:09:01.510Z,3.71
2023-02-13T22:11:03.197Z,3.73
2023-02-13T22:13:04.896Z,3.73
2023-02-13T22:15:06.708Z,3.81
2023-02-13T22:17:08.584Z,3.85
2023-02-13T22:19:13.624Z,3.70
2023-02-13T22:21:18.556Z,3.74
2023-02-13T22:23:20.408Z,3.75
2023-02-13T22:25:22.174Z,3.79
2023-02-13T22:27:23.816Z,3.80
2023-02-13T22:29:27.054Z,3.87
2023-02-13T22:31:28.815Z,3.85
2023-02-13T22:33:30.427Z,3.83
2023-02-13T22:35:32.050Z,3.80
2023-02-13T22:37:34.205Z,3.77
2023-02-13T22:39:35.826Z,3.61
2023-02-13T22:41:37.909Z,3.60
2023-02-13T22:43:39.633Z,3.57
2023-02-13T22:45:41.278Z,3.60
2023-02-13T22:47:42.901Z,3.69
2023-02-13T22:49:44.500Z,3.67
2023-02-13T22:51:46.096Z,3.74
2023-02-13T22:53:48.561Z,3.71
2023-02-13T22:55:50.280Z,3.74
2023-02-13T22:57:54.429Z,3.69
2023-02-13T22:59:56.345Z,3.66
2023-02-13T23:01:57.919Z,3.62
2023-02-13T23:04:00.029Z,3.63
2023-02-13T23:06:04.014Z,3.59
2023-02-13T23:08:05.524Z,3.60
2023-02-13T23:10:07.724Z,3.62
2023-02-13T23:12:27.754Z,3.67
2023-02-13T23:14:29.381Z,3.60
2023-02-13T23:16:54.040Z,3.60
2023-02-13T23:18:56.193Z,3.58
2023-02-13T23:21:04.571Z,3.66
2023-02-13T23:23:06.184Z,3.72
2023-02-13T23:25:07.948Z,3.80
2023-02-13T23:27:09.591Z,3.85
2023-02-13T23:29:11.272Z,3.93
2023-02-13T23:31:12.923Z,3.90
2023-02-13T23:33:14.611Z,3.92
2023-02-13T23:35:16.806Z,3.89
2023-02-13T23:37:18.383Z,3.86
2023-02-13T23:39:21.094Z,3.80
2023-02-13T23:41:22.888Z,3.76
2023-02-13T23:43:24.546Z,3.71
2023-02-13T23:45:26.095Z,3.61
2023-02-13T23:47:27.772Z,3.61
2023-02-13T23:49:29.427Z,3.69
2023-02-13T23:51:31.018Z,3.71
2023-02-13T23:53:35.673Z,3.80
2023-02-13T23:55:37.290Z,3.79
2023-02-13T23:57:38.935Z,3.83
2023-02-13T23:59:40.759Z,3.77
